Time;durP1;ratioP1;P1;durP2;ratioP2;P2;SDS_P1;SDS_P2;PMS_P1;PMS_P2;Temp;Humidity;BMP_temperature;BMP_pressure;BME280_temperature;BME280_humidity;BME280_pressure;Samples;Min_cycle;Max_cycle;Signal;HPM_P1;HPM_P2
2022/08/02 00:01:25;;;;;;;9.30;5.38;;;9.60;99.90;;;;;;5006698;28;20530;-39
2022/08/02 00:03:51;;;;;;;14.90;6.45;;;9.00;99.90;;;;;;5007175;28;20045;-39
2022/08/02 00:06:17;;;;;;;16.35;7.07;;;9.10;99.90;;;;;;5008046;28;20042;-40
2022/08/02 00:08:43;;;;;;;13.77;8.07;;;9.20;99.90;;;;;;5007884;28;20484;-39
2022/08/02 00:11:08;;;;;;;12.38;7.53;;;9.30;99.90;;;;;;5007744;28;20116;-39
2022/08/02 00:13:34;;;;;;;21.85;8.55;;;9.50;99.90;;;;;;5007661;28;20053;-39
2022/08/02 00:16:00;;;;;;;13.85;6.47;;;10.40;99.90;;;;;;5007762;28;20076;-39
2022/08/02 00:18:25;;;;;;;16.70;7.07;;;9.60;99.90;;;;;;5006363;28;20495;-39
2022/08/02 00:20:51;;;;;;;12.68;6.50;;;9.80;99.90;;;;;;5007807;28;20061;-39
2022/08/02 00:23:17;;;;;;;13.57;6.45;;;9.80;99.90;;;;;;5007445;28;20107;-39
2022/08/02 00:25:43;;;;;;;14.50;6.60;;;9.90;99.90;;;;;;5007721;28;20045;-39
2022/08/02 00:28:10;;;;;;;14.20;6.68;;;10.00;99.90;;;;;;5005485;28;20380;-39
2022/08/02 00:30:36;;;;;;;16.23;7.00;;;10.00;99.90;;;;;;5007568;28;20388;-38
2022/08/02 00:33:01;;;;;;;14.02;6.85;;;10.90;99.90;;;;;;5007413;28;20045;-39
2022/08/02 00:35:27;;;;;;;16.13;7.97;;;10.00;99.90;;;;;;5006503;28;20056;-39
2022/08/02 00:37:53;;;;;;;13.05;6.70;;;10.10;99.90;;;;;;5007230;28;20101;-39
2022/08/02 00:40:22;;;;;;;10.57;6.50;;;9.80;99.90;;;;;;5007935;28;20060;-39
2022/08/02 00:43:03;;;;;;;12.38;6.80;;;10.10;99.90;;;;;;5007634;28;20030;-39
2022/08/02 00:45:30;;;;;;;15.43;7.50;;;10.10;99.90;;;;;;5007472;28;20404;-39
2022/08/02 00:47:55;;;;;;;13.52;6.40;;;10.30;99.90;;;;;;5007121;28;20107;-39
2022/08/02 00:50:21;;;;;;;12.18;6.30;;;10.10;99.90;;;;;;5007055;28;20049;-39
2022/08/02 00:52:47;;;;;;;14.77;6.68;;;10.10;99.90;;;;;;5006949;28;20046;-38
2022/08/02 00:55:12;;;;;;;12.10;6.68;;;10.10;99.90;;;;;;5007165;28;20070;-39
2022/08/02 00:57:38;;;;;;;12.35;6.20;;;10.00;99.90;;;;;;5007130;28;20050;-39
2022/08/02 01:00:05;;;;;;;13.48;6.25;;;10.10;99.90;;;;;;5006993;28;20041;-39
2022/08/02 01:02:31;;;;;;;12.15;6.30;;;10.10;99.90;;;;;;5006823;28;20078;-39
2022/08/02 01:04:56;;;;;;;10.57;6.47;;;10.00;99.90;;;;;;5006920;28;20085;-39
2022/08/02 01:07:22;;;;;;;13.07;6.25;;;9.70;99.90;;;;;;5007193;28;20166;-39
2022/08/02 01:09:48;;;;;;;14.90;6.43;;;9.90;99.90;;;;;;5007292;28;20072;-39
2022/08/02 01:12:13;;;;;;;11.27;6.88;;;9.80;99.90;;;;;;5005346;28;20057;-39
2022/08/02 01:14:42;;;;;;;16.08;6.68;;;10.50;99.90;;;;;;5006585;28;20061;-39
2022/08/02 01:17:33;;;;;;;12.52;6.72;;;9.80;99.90;;;;;;5006462;28;20054;-39
2022/08/02 01:20:13;;;;;;;11.65;6.55;;;9.80;99.90;;;;;;5007165;28;20385;-39
2022/08/02 01:22:53;;;;;;;12.32;6.65;;;9.70;99.90;;;;;;5007187;28;20037;-39
2022/08/02 01:25:36;;;;;;;15.80;6.97;;;10.00;99.90;;;;;;5007323;28;20053;-39
2022/08/02 01:28:11;;;;;;;13.98;6.95;;;9.60;99.90;;;;;;5006889;28;20053;-39
2022/08/02 01:30:40;;;;;;;14.65;6.55;;;9.60;99.90;;;;;;5007302;28;20121;-39
2022/08/02 01:33:07;;;;;;;12.93;6.30;;;9.90;99.90;;;;;;5007153;28;20508;-39
2022/08/02 01:35:40;;;;;;;12.30;6.18;;;9.50;99.90;;;;;;5007297;28;20034;-39
2022/08/02 01:38:13;;;;;;;11.70;7.20;;;9.50;99.90;;;;;;5007074;28;20096;-39
2022/08/02 01:40:41;;;;;;;12.60;6.68;;;9.50;99.90;;;;;;5011079;28;20073;-39
2022/08/02 01:43:09;;;;;;;12.80;7.18;;;9.40;99.90;;;;;;5010445;28;20526;-39
2022/08/02 01:45:38;;;;;;;19.10;7.00;;;9.70;99.90;;;;;;5010970;28;20164;-39
2022/08/02 01:48:05;;;;;;;14.70;6.43;;;9.30;99.90;;;;;;5010723;28;20068;-39
2022/08/02 01:50:33;;;;;;;23.13;7.25;;;9.40;99.90;;;;;;5010755;28;20407;-39
2022/08/02 01:53:04;;;;;;;15.82;6.63;;;9.70;99.90;;;;;;5010571;28;20050;-39
2022/08/02 01:55:45;;;;;;;11.10;6.28;;;9.40;99.90;;;;;;5010552;28;20515;-39
2022/08/02 01:58:15;;;;;;;16.73;6.88;;;10.10;99.90;;;;;;5010296;28;20050;-39
2022/08/02 02:00:42;;;;;;;12.88;6.63;;;9.50;99.90;;;;;;5010610;28;20072;-39
2022/08/02 02:03:19;;;;;;;12.88;6.63;;;9.60;99.90;;;;;;5009843;28;20053;-39
2022/08/02 02:05:47;;;;;;;17.40;6.95;;;9.70;99.90;;;;;;5010330;28;20046;-39
2022/08/02 02:08:15;;;;;;;17.38;6.55;;;9.80;99.90;;;;;;5008701;28;20057;-39
2022/08/02 02:10:43;;;;;;;13.07;6.72;;;9.50;99.90;;;;;;5008757;28;20054;-39
2022/08/02 02:13:13;;;;;;;17.45;7.18;;;9.50;99.90;;;;;;5009630;28;20065;-39
2022/08/02 02:15:43;;;;;;;9.75;6.38;;;9.90;99.90;;;;;;5010162;28;20045;-39
2022/08/02 02:18:11;;;;;;;18.58;7.20;;;9.50;99.90;;;;;;5009656;28;20046;-39
2022/08/02 02:20:37;;;;;;;12.10;7.32;;;9.40;99.90;;;;;;5009852;28;20053;-39
2022/08/02 02:23:03;;;;;;;14.07;7.10;;;9.70;99.90;;;;;;5009372;28;20404;-39
2022/08/02 02:25:29;;;;;;;11.77;6.50;;;9.70;99.90;;;;;;5009983;28;20392;-39
2022/08/02 02:28:01;;;;;;;15.95;6.82;;;9.80;99.90;;;;;;5009907;28;20041;-38
2022/08/02 02:30:28;;;;;;;11.73;6.95;;;9.90;99.90;;;;;;5010033;28;20123;-39
2022/08/02 02:32:58;;;;;;;11.57;6.30;;;9.90;99.90;;;;;;5010056;28;20581;-39
2022/08/02 02:35:28;;;;;;;16.45;6.88;;;9.90;99.90;;;;;;5009865;28;20472;-39
2022/08/02 02:37:57;;;;;;;14.48;7.00;;;9.80;99.90;;;;;;5009771;28;20042;-39
2022/08/02 02:40:24;;;;;;;13.45;7.13;;;9.90;99.90;;;;;;5010030;28;20042;-39
2022/08/02 02:42:51;;;;;;;14.98;6.80;;;9.80;99.90;;;;;;5010056;28;20042;-39
2022/08/02 02:45:19;;;;;;;13.65;7.68;;;9.80;99.90;;;;;;5009510;28;20509;-39
2022/08/02 02:47:48;;;;;;;12.50;7.28;;;9.80;99.90;;;;;;5009384;28;20054;-39
2022/08/02 02:50:15;;;;;;;15.95;8.25;;;10.10;99.90;;;;;;5009244;28;20507;-39
2022/08/02 02:52:42;;;;;;;16.65;8.02;;;9.80;99.90;;;;;;5009306;28;20041;-39
2022/08/02 02:55:09;;;;;;;14.55;7.15;;;9.80;99.90;;;;;;5008946;28;20462;-38
2022/08/02 02:57:36;;;;;;;14.85;6.45;;;9.90;99.90;;;;;;5009479;28;20042;-39
2022/08/02 03:00:11;;;;;;;12.63;6.55;;;9.80;99.90;;;;;;5009242;28;20399;-39
2022/08/02 03:02:38;;;;;;;12.60;6.95;;;9.90;99.90;;;;;;5009199;28;20076;-39
2022/08/02 03:05:06;;;;;;;17.80;7.43;;;9.80;99.90;;;;;;5009041;28;20046;-39
2022/08/02 03:07:33;;;;;;;15.50;6.90;;;9.80;99.90;;;;;;5008797;28;20052;-39
2022/08/02 03:10:00;;;;;;;13.55;7.70;;;9.90;99.90;;;;;;5008976;28;20046;-39
2022/08/02 03:12:26;;;;;;;16.48;6.80;;;9.90;99.90;;;;;;5008689;28;20042;-39
2022/08/02 03:14:53;;;;;;;13.70;6.82;;;9.90;99.90;;;;;;5008158;28;20054;-38
2022/08/02 03:17:19;;;;;;;14.73;5.75;;;9.90;99.90;;;;;;5009316;28;20064;-39
2022/08/02 03:19:45;;;;;;;17.80;7.13;;;9.90;99.90;;;;;;5009589;28;20480;-39
2022/08/02 03:22:11;;;;;;;11.18;7.07;;;9.90;99.90;;;;;;5009255;28;20045;-39
2022/08/02 03:24:37;;;;;;;12.43;5.80;;;9.90;99.90;;;;;;4992077;28;20129;-39
2022/08/02 03:27:03;;;;;;;13.20;7.28;;;10.00;99.90;;;;;;5009662;28;20100;-39
2022/08/02 03:29:28;;;;;;;17.23;7.13;;;9.90;99.90;;;;;;5009156;28;20724;-38
2022/08/02 03:31:54;;;;;;;17.30;6.72;;;9.90;99.90;;;;;;5009401;28;20042;-39
2022/08/02 03:34:21;;;;;;;9.23;6.78;;;9.80;99.90;;;;;;5008760;28;20112;-38
2022/08/02 03:36:51;;;;;;;10.57;7.15;;;9.80;99.90;;;;;;5008522;28;20485;-39
2022/08/02 03:39:18;;;;;;;15.57;8.13;;;9.80;99.90;;;;;;5008800;28;20061;-39
2022/08/02 03:41:45;;;;;;;13.02;6.90;;;9.80;99.90;;;;;;5008892;28;20033;-39
2022/08/02 03:44:12;;;;;;;10.20;7.05;;;9.70;99.90;;;;;;5008911;28;20045;-39
2022/08/02 03:46:40;;;;;;;13.40;6.57;;;10.10;99.90;;;;;;5008989;28;20120;-39
2022/08/02 03:49:07;;;;;;;14.15;6.63;;;9.70;99.90;;;;;;5008581;28;20104;-38
2022/08/02 03:51:35;;;;;;;16.25;6.75;;;9.80;99.90;;;;;;5008801;28;20455;-39
2022/08/02 03:54:01;;;;;;;13.80;6.65;;;9.80;99.90;;;;;;5008689;28;20412;-39
2022/08/02 03:56:28;;;;;;;13.02;7.13;;;9.90;99.90;;;;;;5007766;28;20046;-39
2022/08/02 03:59:11;;;;;;;13.65;7.13;;;9.80;99.90;;;;;;5007090;28;20057;-39
2022/08/02 04:01:37;;;;;;;15.18;7.80;;;10.00;99.90;;;;;;5007173;28;20381;-39
2022/08/02 04:04:03;;;;;;;15.05;7.35;;;10.00;99.90;;;;;;5006340;28;20053;-38
2022/08/02 04:06:29;;;;;;;15.43;7.72;;;10.00;99.90;;;;;;5008020;28;20048;-39
2022/08/02 04:08:55;;;;;;;14.25;7.53;;;10.10;99.90;;;;;;5008276;28;20045;-39
2022/08/02 04:11:29;;;;;;;11.35;6.85;;;10.00;99.90;;;;;;5008332;28;20077;-38
2022/08/02 04:13:57;;;;;;;14.90;7.72;;;10.30;99.90;;;;;;5008202;28;20060;-39
2022/08/02 04:16:36;;;;;;;10.63;6.90;;;10.20;99.90;;;;;;5006249;28;20124;-39
2022/08/02 04:19:06;;;;;;;14.90;6.60;;;10.20;99.90;;;;;;5008114;28;20132;-39
2022/08/02 04:21:35;;;;;;;15.45;7.45;;;10.20;99.90;;;;;;5007720;28;20130;-39
2022/08/02 04:24:03;;;;;;;12.95;7.20;;;10.30;99.90;;;;;;5007834;28;20042;-39
2022/08/02 04:26:31;;;;;;;12.05;6.90;;;10.30;99.90;;;;;;5007708;28;20103;-39
2022/08/02 04:28:58;;;;;;;16.92;7.05;;;10.40;99.90;;;;;;5007768;28;20042;-39
2022/08/02 04:31:24;;;;;;;13.65;7.43;;;10.50;99.90;;;;;;5007697;28;20088;-39
2022/08/02 04:33:50;;;;;;;16.40;7.25;;;10.40;99.90;;;;;;5007757;28;20065;-39
2022/08/02 04:36:16;;;;;;;10.95;7.07;;;10.50;99.90;;;;;;5007807;28;20550;-39
2022/08/02 04:38:42;;;;;;;12.75;7.03;;;11.20;99.90;;;;;;5007546;28;20033;-39
2022/08/02 04:41:08;;;;;;;20.23;8.13;;;10.60;99.90;;;;;;5007194;28;20062;-39
2022/08/02 04:43:34;;;;;;;13.43;7.07;;;10.80;99.90;;;;;;5007494;28;20038;-39
2022/08/02 04:46:01;;;;;;;17.25;7.10;;;10.90;99.90;;;;;;5007680;28;20045;-38
2022/08/02 04:48:27;;;;;;;15.13;7.05;;;10.90;99.90;;;;;;5007897;28;20135;-39
2022/08/02 04:50:53;;;;;;;12.90;7.10;;;11.00;99.90;;;;;;5007614;28;20042;-39
2022/08/02 04:53:19;;;;;;;14.43;6.57;;;11.10;99.90;;;;;;5007735;28;20050;-39
2022/08/02 04:55:45;;;;;;;12.63;7.22;;;11.20;99.90;;;;;;5007099;28;20141;-39
2022/08/02 04:58:12;;;;;;;15.35;7.07;;;11.20;99.90;;;;;;5007032;28;20590;-39
2022/08/02 05:00:38;;;;;;;17.92;7.50;;;11.30;99.90;;;;;;5006758;28;20088;-38
2022/08/02 05:03:03;;;;;;;10.43;6.13;;;12.20;99.90;;;;;;5007179;28;20483;-38
2022/08/02 05:05:29;;;;;;;18.65;7.30;;;11.40;99.90;;;;;;5005591;28;20049;-39
2022/08/02 05:07:55;;;;;;;16.60;7.03;;;11.50;99.90;;;;;;5007229;28;20089;-39
2022/08/02 05:10:21;;;;;;;12.73;7.40;;;11.60;99.90;;;;;;5007285;28;20042;-39
2022/08/02 05:12:47;;;;;;;13.07;6.90;;;11.60;99.90;;;;;;5007008;28;20068;-39
2022/08/02 05:15:15;;;;;;;13.38;6.80;;;12.10;99.90;;;;;;5010113;28;20049;-39
2022/08/02 05:17:41;;;;;;;11.18;5.88;;;11.70;99.90;;;;;;5011062;28;20059;-39
2022/08/02 05:20:07;;;;;;;10.85;6.38;;;11.90;99.90;;;;;;5011431;28;20069;-39
2022/08/02 05:22:33;;;;;;;14.15;6.95;;;12.10;99.90;;;;;;5010743;28;20053;-39
2022/08/02 05:24:58;;;;;;;14.50;6.85;;;12.30;99.90;;;;;;5009661;28;20396;-39
2022/08/02 05:27:24;;;;;;;10.07;6.05;;;12.60;99.90;;;;;;5009405;28;20494;-39
2022/08/02 05:29:50;;;;;;;12.07;6.82;;;12.70;99.90;;;;;;5010782;28;20116;-39
2022/08/02 05:32:17;;;;;;;11.48;6.18;;;12.70;99.90;;;;;;5011495;28;20424;-39
2022/08/02 05:34:43;;;;;;;9.80;5.55;;;13.00;99.90;;;;;;5010865;28;20407;-39
2022/08/02 05:37:08;;;;;;;11.55;5.97;;;13.10;99.90;;;;;;5011085;28;20057;-39
2022/08/02 05:39:34;;;;;;;12.32;6.03;;;14.10;99.90;;;;;;5010629;28;20038;-39
2022/08/02 05:42:00;;;;;;;8.00;4.97;;;15.20;99.90;;;;;;5011259;28;20038;-39
2022/08/02 05:44:25;;;;;;;12.65;5.57;;;16.50;99.90;;;;;;5010892;28;20045;-39
2022/08/02 05:46:51;;;;;;;9.85;4.63;;;16.50;99.90;;;;;;5010867;28;20360;-39
2022/08/02 05:49:17;;;;;;;8.48;4.72;;;16.70;99.90;;;;;;5011169;28;20142;-39
2022/08/02 05:51:55;;;;;;;10.60;5.15;;;16.20;99.90;;;;;;5010864;28;20050;-39
2022/08/02 05:54:35;;;;;;;8.48;4.38;;;15.70;99.90;;;;;;5010741;28;20088;-39
2022/08/02 05:57:05;;;;;;;11.55;4.95;;;15.60;99.90;;;;;;5010392;28;20038;-39
2022/08/02 05:59:33;;;;;;;10.43;4.45;;;15.70;99.90;;;;;;5008642;28;20448;-39
2022/08/02 06:02:03;;;;;;;8.52;4.35;;;16.40;99.90;;;;;;5010223;28;20072;-39
2022/08/02 06:04:41;;;;;;;7.25;3.90;;;16.90;99.90;;;;;;5010267;28;20046;-39
2022/08/02 06:07:10;;;;;;;12.32;3.72;;;16.80;99.90;;;;;;5010745;28;20050;-39
2022/08/02 06:09:39;;;;;;;6.75;3.50;;;16.90;99.90;;;;;;5009743;28;20068;-39
2022/08/02 06:12:09;;;;;;;10.70;3.90;;;17.30;99.90;;;;;;5010212;28;20033;-39
2022/08/02 06:14:36;;;;;;;8.02;2.95;;;18.80;99.90;;;;;;5008434;28;20058;-39
2022/08/02 06:17:04;;;;;;;9.80;3.40;;;20.00;99.90;;;;;;5009028;28;20045;-39
2022/08/02 06:19:31;;;;;;;12.57;3.80;;;19.80;99.90;;;;;;5009038;28;20034;-40
2022/08/02 06:22:13;;;;;;;8.77;3.75;;;19.60;99.90;;;;;;5008730;28;20040;-39
2022/08/02 06:24:42;;;;;;;;;;;19.50;99.90;;;;;;5009376;28;20074;-39
2022/08/02 06:27:08;;;;;;;5.63;3.10;;;19.10;99.90;;;;;;5009283;28;19929;-39
2022/08/02 06:29:35;;;;;;;6.60;3.17;;;18.90;99.90;;;;;;5009138;28;20061;-40
2022/08/02 06:32:01;;;;;;;9.70;3.40;;;18.90;99.90;;;;;;5009338;28;20429;-39
2022/08/02 06:34:27;;;;;;;10.07;3.35;;;18.90;99.90;;;;;;5007866;28;20084;-39
2022/08/02 06:37:20;;;;;;;11.25;3.20;;;18.90;99.90;;;;;;5008091;28;20081;-39
2022/08/02 06:39:49;;;;;;;10.60;3.72;;;19.10;99.90;;;;;;5008536;28;20038;-40
2022/08/02 06:42:20;;;;;;;8.73;3.05;;;19.80;99.90;;;;;;5008695;28;20400;-39
2022/08/02 06:44:46;;;;;;;10.32;2.88;;;19.80;99.90;;;;;;5008484;28;20115;-39
2022/08/02 06:47:12;;;;;;;6.30;2.60;;;20.00;99.90;;;;;;5008686;28;20158;-40
2022/08/02 06:49:39;;;;;;;7.65;2.58;;;20.50;99.90;;;;;;5007313;28;20046;-40
2022/08/02 06:52:04;;;;;;;7.78;2.35;;;22.20;99.70;;;;;;5008563;28;20049;-39
2022/08/02 06:54:30;;;;;;;8.77;2.53;;;23.70;97.30;;;;;;4973797;28;20058;-42
2022/08/02 06:56:56;;;;;;;8.32;2.03;;;24.80;93.10;;;;;;4986066;28;20117;-40
2022/08/02 06:59:21;;;;;;;6.32;2.22;;;25.90;90.00;;;;;;4985849;28;20043;-39
2022/08/02 07:01:47;;;;;;;7.85;1.80;;;26.70;84.60;;;;;;4985447;28;20049;-41
2022/08/02 07:04:13;;;;;;;7.05;2.03;;;27.50;81.40;;;;;;4986246;28;20049;-39
2022/08/02 07:06:38;;;;;;;4.63;1.50;;;28.20;76.50;;;;;;4986187;28;20372;-39
2022/08/02 07:09:04;;;;;;;5.32;1.42;;;29.10;73.80;;;;;;4986461;28;20441;-41
2022/08/02 07:11:30;;;;;;;3.97;1.15;;;29.90;71.30;;;;;;4986659;28;20350;-39
2022/08/02 07:13:55;;;;;;;4.63;1.03;;;30.60;69.40;;;;;;4948580;28;1101228;-40
2022/08/02 07:16:21;;;;;;;4.47;0.60;;;31.10;66.80;;;;;;4986579;28;20798;-39
2022/08/02 07:18:47;;;;;;;4.80;1.02;;;31.40;65.80;;;;;;4986223;28;20046;-39
2022/08/02 07:21:12;;;;;;;5.50;0.90;;;30.60;64.10;;;;;;4986602;28;20042;-40
2022/08/02 07:23:38;;;;;;;6.68;1.02;;;29.20;65.30;;;;;;4986832;28;20042;-39
2022/08/02 07:26:04;;;;;;;6.63;1.30;;;28.30;68.30;;;;;;4986519;28;20531;-39
2022/08/02 07:28:29;;;;;;;8.43;0.70;;;27.90;68.60;;;;;;4986871;28;20056;-39
2022/08/02 07:30:55;;;;;;;5.25;0.57;;;28.20;68.00;;;;;;4985805;28;20112;-38
2022/08/02 07:33:21;;;;;;;3.15;0.50;;;28.90;65.50;;;;;;4986228;28;20052;-39
2022/08/02 07:35:46;;;;;;;3.67;0.68;;;28.80;64.90;;;;;;4985958;28;20038;-40
2022/08/02 07:38:12;;;;;;;3.90;0.40;;;28.40;64.00;;;;;;4984880;28;20048;-38
2022/08/02 07:40:38;;;;;;;4.18;0.50;;;28.20;63.20;;;;;;4986701;28;20078;-38
2022/08/02 07:43:04;;;;;;;3.72;0.50;;;28.00;62.30;;;;;;4985681;28;20121;-40
2022/08/02 07:45:31;;;;;;;6.07;0.93;;;28.40;62.80;;;;;;4985961;28;20058;-39
2022/08/02 07:47:57;;;;;;;3.35;0.50;;;29.30;62.70;;;;;;4986067;28;20042;-39
2022/08/02 07:50:23;;;;;;;1.95;0.50;;;30.30;62.90;;;;;;4985296;28;20050;-39
2022/08/02 07:52:49;;;;;;;6.60;0.60;;;31.40;61.90;;;;;;4988297;28;20100;-39
2022/08/02 07:55:17;;;;;;;3.15;0.50;;;32.30;59.10;;;;;;4988067;28;20092;-39
2022/08/02 07:57:43;;;;;;;3.10;0.30;;;33.10;57.30;;;;;;4988251;28;20059;-39
2022/08/02 08:00:09;;;;;;;4.55;0.50;;;33.90;54.90;;;;;;4988785;28;20366;-38
2022/08/02 08:02:36;;;;;;;2.40;0.40;;;34.40;53.90;;;;;;4989014;28;20039;-39
2022/08/02 08:05:02;;;;;;;5.25;0.70;;;34.90;53.40;;;;;;4986733;28;20479;-39
2022/08/02 08:07:28;;;;;;;2.17;0.40;;;35.10;52.30;;;;;;4988949;28;20134;-38
2022/08/02 08:09:54;;;;;;;3.72;0.40;;;35.10;51.30;;;;;;4988466;28;20126;-38
2022/08/02 08:12:20;;;;;;;2.65;0.50;;;35.00;50.90;;;;;;5019746;28;20049;-39
2022/08/02 08:14:45;;;;;;;2.47;0.30;;;35.30;50.30;;;;;;4988532;28;20117;-38
2022/08/02 08:17:11;;;;;;;1.48;0.20;;;35.50;49.50;;;;;;4988569;28;20050;-38
2022/08/02 08:19:37;;;;;;;3.47;0.30;;;35.50;49.20;;;;;;5019492;28;20522;-39
2022/08/02 08:22:03;;;;;;;2.28;0.40;;;35.30;48.80;;;;;;4988026;28;20042;-38
2022/08/02 08:24:28;;;;;;;2.42;0.20;;;35.30;48.40;;;;;;4988195;28;20034;-38
2022/08/02 08:26:55;;;;;;;1.75;0.20;;;35.00;47.10;;;;;;4988142;28;20408;-38
2022/08/02 08:29:22;;;;;;;3.53;0.30;;;35.00;47.50;;;;;;4987802;28;20112;-38
2022/08/02 08:31:48;;;;;;;4.70;0.40;;;34.70;46.80;;;;;;4987764;28;20042;-38
2022/08/02 08:34:13;;;;;;;2.80;0.52;;;34.70;47.20;;;;;;4987485;28;20555;-39
2022/08/02 08:36:40;;;;;;;2.22;0.20;;;35.00;47.20;;;;;;4987841;28;20382;-38
2022/08/02 08:39:06;;;;;;;2.17;0.20;;;35.10;46.60;;;;;;4987771;28;20042;-38
2022/08/02 08:41:33;;;;;;;1.13;0.20;;;35.30;46.50;;;;;;4987822;28;20042;-38
2022/08/02 08:44:00;;;;;;;1.67;0.25;;;35.30;46.00;;;;;;4987545;28;20048;-38
2022/08/02 08:46:28;;;;;;;1.65;0.20;;;35.30;45.40;;;;;;4988206;28;20057;-38
2022/08/02 08:49:18;;;;;;;2.20;0.20;;;35.10;45.20;;;;;;4987643;28;20050;-38
2022/08/02 08:51:44;;;;;;;1.70;0.38;;;35.10;44.80;;;;;;4956721;28;20154;-39
2022/08/02 08:54:15;;;;;;;2.67;0.20;;;35.00;45.60;;;;;;4984327;28;20042;-38
2022/08/02 08:56:41;;;;;;;;;;;34.60;47.60;;;;;;4985587;28;20878;-38
2022/08/02 08:59:07;;;;;;;2.75;0.20;;;34.20;47.20;;;;;;4984656;28;19926;-38
2022/08/02 09:01:33;;;;;;;1.17;0.20;;;34.30;46.90;;;;;;4984932;28;20096;-38
2022/08/02 09:03:59;;;;;;;2.03;0.20;;;34.70;47.00;;;;;;4983021;28;20665;-38
2022/08/02 09:06:25;;;;;;;0.88;0.20;;;35.20;46.50;;;;;;4985064;28;20138;-38
2022/08/02 09:08:51;;;;;;;1.85;0.22;;;35.40;45.60;;;;;;4984569;28;20058;-38
2022/08/02 09:11:21;;;;;;;2.30;0.30;;;35.60;45.60;;;;;;4984339;28;20807;-38
2022/08/02 09:13:58;;;;;;;3.40;0.20;;;35.80;45.00;;;;;;4984569;28;20556;-38
2022/08/02 09:16:34;;;;;;;2.15;0.20;;;36.00;46.40;;;;;;4983604;28;20046;-38
2022/08/02 09:19:16;;;;;;;1.70;0.30;;;36.40;45.00;;;;;;4985044;28;20053;-38
2022/08/02 09:21:42;;;;;;;2.85;0.30;;;36.90;44.80;;;;;;4985613;28;20093;-38
2022/08/02 09:24:21;;;;;;;1.42;0.25;;;36.90;44.40;;;;;;4984601;28;20078;-38
2022/08/02 09:26:48;;;;;;;1.90;0.20;;;36.80;44.30;;;;;;4984239;28;20084;-38
2022/08/02 09:29:16;;;;;;;2.35;0.20;;;36.90;44.30;;;;;;4983757;28;20057;-38
2022/08/02 09:31:43;;;;;;;1.83;0.40;;;36.90;44.00;;;;;;4978620;28;20054;-40
2022/08/02 09:34:09;;;;;;;3.15;0.30;;;37.70;44.60;;;;;;4978300;28;20073;-43
2022/08/02 09:36:44;;;;;;;1.33;0.20;;;37.30;44.00;;;;;;4982933;28;20089;-43
2022/08/02 09:39:12;;;;;;;2.25;0.25;;;37.60;43.80;;;;;;4982048;28;20396;-39
2022/08/02 09:41:40;;;;;;;2.05;0.20;;;37.70;45.20;;;;;;4983219;28;20042;-42
2022/08/02 09:44:08;;;;;;;3.35;0.47;;;37.90;45.20;;;;;;4981968;28;20139;-42
2022/08/02 09:46:37;;;;;;;2.65;0.38;;;37.80;43.70;;;;;;4983847;28;20112;-39
2022/08/02 09:49:08;;;;;;;3.00;0.22;;;37.60;42.60;;;;;;4981297;28;20135;-40
2022/08/02 09:51:50;;;;;;;2.65;0.32;;;37.30;42.70;;;;;;4964942;28;20051;-46
2022/08/02 09:54:35;;;;;;;2.92;0.30;;;37.10;44.00;;;;;;4982477;28;20763;-44
2022/08/02 09:57:01;;;;;;;3.35;0.47;;;36.70;43.00;;;;;;4982691;28;20039;-42
2022/08/02 09:59:28;;;;;;;1.33;0.20;;;36.30;43.30;;;;;;4982516;28;20111;-39
2022/08/02 10:01:55;;;;;;;3.60;0.77;;;35.70;44.30;;;;;;4988438;28;20042;-39
2022/08/02 10:04:22;;;;;;;4.05;0.38;;;35.30;45.30;;;;;;4987792;28;20046;-39
2022/08/02 10:06:50;;;;;;;1.38;0.20;;;35.40;46.90;;;;;;4988635;28;20050;-39
2022/08/02 10:09:16;;;;;;;3.10;0.30;;;35.50;46.30;;;;;;4988356;28;20085;-39
2022/08/02 10:11:42;;;;;;;3.88;0.30;;;35.80;46.20;;;;;;4987653;28;20057;-39
2022/08/02 10:14:09;;;;;;;2.78;0.50;;;36.10;45.30;;;;;;4989141;28;20058;-39
2022/08/02 10:16:40;;;;;;;2.83;0.20;;;36.30;45.10;;;;;;4990019;28;20088;-39
2022/08/02 10:19:06;;;;;;;2.88;0.40;;;36.60;45.80;;;;;;4990105;28;20054;-39
2022/08/02 10:21:35;;;;;;;1.45;0.40;;;36.40;45.20;;;;;;4989923;28;20765;-39
2022/08/02 10:24:09;;;;;;;2.70;0.65;;;36.40;45.40;;;;;;4990277;28;20402;-39
2022/08/02 10:26:39;;;;;;;2.00;0.32;;;36.10;45.40;;;;;;4990651;28;20046;-39
2022/08/02 10:29:07;;;;;;;3.65;0.77;;;36.30;46.50;;;;;;4990180;28;20140;-39
2022/08/02 10:31:56;;;;;;;3.65;0.60;;;36.30;46.20;;;;;;4990647;28;20046;-38
2022/08/02 10:34:37;;;;;;;3.10;0.50;;;36.50;46.30;;;;;;4989721;28;20054;-39
2022/08/02 10:37:05;;;;;;;2.90;0.40;;;36.40;46.20;;;;;;4990134;28;20101;-39
2022/08/02 10:39:41;;;;;;;2.47;0.65;;;36.00;46.30;;;;;;4990206;28;20050;-39
2022/08/02 10:42:07;;;;;;;3.15;0.70;;;35.40;47.20;;;;;;4989500;28;20558;-39
2022/08/02 10:44:34;;;;;;;2.40;0.80;;;34.90;47.30;;;;;;4989990;28;20038;-39
2022/08/02 10:47:24;;;;;;;4.55;1.42;;;34.50;47.60;;;;;;4988237;28;20046;-39
2022/08/02 10:49:59;;;;;;;5.97;0.70;;;34.00;49.00;;;;;;4989131;28;20493;-39
2022/08/02 10:52:31;;;;;;;2.83;0.57;;;33.80;49.80;;;;;;4988984;28;20108;-39
2022/08/02 10:55:02;;;;;;;1.85;0.73;;;33.80;51.00;;;;;;4989540;28;20117;-39
2022/08/02 10:57:32;;;;;;;4.30;1.15;;;32.90;50.70;;;;;;4988855;28;20093;-39
2022/08/02 11:00:11;;;;;;;6.90;0.95;;;32.20;52.90;;;;;;4986971;28;20053;-39
2022/08/02 11:02:42;;;;;;;2.80;1.20;;;31.60;54.00;;;;;;4989528;28;20393;-39
2022/08/02 11:05:17;;;;;;;3.05;0.85;;;31.10;55.30;;;;;;4989478;28;20042;-39
2022/08/02 11:07:48;;;;;;;4.47;1.30;;;30.80;57.20;;;;;;4987813;28;20049;-39
2022/08/02 11:10:37;;;;;;;3.30;0.98;;;30.40;56.90;;;;;;4988742;28;20183;-39
2022/08/02 11:13:09;;;;;;;3.47;1.08;;;30.00;57.20;;;;;;4987891;28;20594;-39
2022/08/02 11:15:55;;;;;;;4.28;1.00;;;29.60;57.70;;;;;;4989242;28;20129;-39
2022/08/02 11:18:23;;;;;;;3.65;1.30;;;29.30;60.30;;;;;;4988904;28;20042;-39
2022/08/02 11:21:20;;;;;;;4.70;1.10;;;29.00;60.10;;;;;;4989204;28;20126;-39
2022/08/02 11:23:46;;;;;;;3.55;0.65;;;28.80;62.40;;;;;;4988989;28;20057;-39
2022/08/02 11:26:30;;;;;;;2.42;0.98;;;28.70;61.80;;;;;;4988842;28;20050;-39
2022/08/02 11:29:00;;;;;;;6.93;1.25;;;28.50;62.80;;;;;;4988180;28;20171;-39
2022/08/02 11:31:27;;;;;;;3.88;1.15;;;28.50;63.10;;;;;;4988609;28;20746;-39
2022/08/02 11:33:53;;;;;;;5.00;1.17;;;28.20;63.00;;;;;;4989065;28;20046;-39
2022/08/02 11:36:19;;;;;;;2.05;1.00;;;28.10;63.80;;;;;;4988864;28;20563;-38
2022/08/02 11:38:45;;;;;;;2.55;0.73;;;28.00;63.80;;;;;;4988953;28;20050;-39
2022/08/02 11:41:21;;;;;;;6.47;1.25;;;28.00;64.10;;;;;;4987844;28;20061;-39
2022/08/02 11:43:53;;;;;;;2.40;0.80;;;28.10;65.40;;;;;;4988743;28;20057;-39
2022/08/02 11:46:19;;;;;;;5.95;1.25;;;28.30;65.60;;;;;;4988975;28;20042;-39
2022/08/02 11:48:45;;;;;;;4.50;1.25;;;28.30;65.10;;;;;;4988869;28;20038;-39
2022/08/02 11:51:16;;;;;;;3.22;0.85;;;28.40;64.50;;;;;;4989244;28;20542;-39
2022/08/02 11:53:42;;;;;;;3.60;0.77;;;28.30;63.90;;;;;;4988848;28;20082;-38
2022/08/02 11:56:09;;;;;;;3.22;1.00;;;28.30;64.00;;;;;;4988708;28;20046;-39
2022/08/02 11:58:35;;;;;;;1.92;1.00;;;28.20;64.30;;;;;;4988039;28;20361;-39
2022/08/02 12:01:02;;;;;;;3.45;1.17;;;28.20;64.80;;;;;;4988797;28;20038;-38
2022/08/02 12:03:32;;;;;;;5.68;1.00;;;28.10;64.40;;;;;;4988048;28;20113;-38
2022/08/02 12:05:58;;;;;;;3.67;0.80;;;28.00;64.70;;;;;;4988780;28;20046;-38
2022/08/02 12:08:25;;;;;;;2.25;0.93;;;27.90;64.80;;;;;;4988020;28;20440;-38
2022/08/02 12:10:50;;;;;;;2.00;0.88;;;27.80;65.30;;;;;;4987942;28;20053;-38
2022/08/02 12:13:16;;;;;;;3.08;0.82;;;27.80;65.60;;;;;;4987724;28;20062;-38
2022/08/02 12:15:44;;;;;;;2.05;0.60;;;27.70;66.00;;;;;;4987815;28;20093;-38
2022/08/02 12:20:57;;;;;;;2.65;0.80;;;27.70;66.70;;;;;;4987674;28;20135;-38
2022/08/02 12:23:23;;;;;;;5.35;1.20;;;27.80;66.80;;;;;;4985850;28;20084;-39
2022/08/02 12:26:03;;;;;;;3.22;0.68;;;27.90;66.90;;;;;;4988018;28;20496;-39
2022/08/02 12:28:33;;;;;;;4.45;0.98;;;28.00;65.00;;;;;;4987949;28;20181;-39
2022/08/02 12:31:00;;;;;;;2.57;0.60;;;28.10;65.60;;;;;;4980326;28;20151;-39
2022/08/02 12:33:28;;;;;;;4.82;0.80;;;28.20;65.90;;;;;;5004639;28;20088;-39
2022/08/02 12:35:54;;;;;;;1.17;0.55;;;28.30;65.70;;;;;;5004922;28;20056;-39
2022/08/02 12:38:21;;;;;;;2.63;0.70;;;28.30;64.80;;;;;;5005058;28;20050;-39
2022/08/02 12:40:47;;;;;;;3.78;0.52;;;28.40;64.40;;;;;;5005380;28;20080;-39
2022/08/02 12:43:23;;;;;;;2.35;0.50;;;28.50;64.90;;;;;;5005201;28;20033;-39
2022/08/02 12:45:56;;;;;;;2.22;0.47;;;28.50;65.10;;;;;;5004902;28;20052;-39
2022/08/02 12:48:37;;;;;;;2.10;0.50;;;28.70;65.10;;;;;;5005203;28;20484;-39
2022/08/02 12:51:23;;;;;;;2.15;0.30;;;28.70;65.40;;;;;;5005811;28;20042;-39
2022/08/02 12:53:50;;;;;;;1.00;0.40;;;28.50;64.90;;;;;;5005722;28;20061;-38
2022/08/02 12:56:31;;;;;;;2.17;0.80;;;28.20;65.00;;;;;;5006013;28;20129;-38